Time;durP1;ratioP1;P1;durP2;ratioP2;P2;SDS_P1;SDS_P2;PMS_P1;PMS_P2;Temp;Humidity;BMP_temperature;BMP_pressure;BME280_temperature;BME280_humidity;BME280_pressure;Samples;Min_cycle;Max_cycle;Signal;HPM_P1;HPM_P2
2022/04/08 00:00:39;;;;;;;3.95;1.02;;;;;;;7.63;100.00;97064.69;5026567;28;20064;-50
2022/04/08 00:03:25;;;;;;;3.95;0.70;;;;;;;7.58;100.00;97069.34;5025738;28;20469;-50
2022/04/08 00:06:09;;;;;;;5.15;0.77;;;;;;;7.59;100.00;97064.03;5025555;28;20046;-50
2022/04/08 00:08:53;;;;;;;2.70;0.57;;;;;;;7.46;100.00;97069.06;5026510;28;20044;-50
2022/04/08 00:11:38;;;;;;;3.60;0.80;;;;;;;7.53;100.00;97061.75;5025721;28;20057;-50
2022/04/08 00:14:22;;;;;;;3.95;0.70;;;;;;;7.53;100.00;97066.13;5025064;28;20053;-50
2022/04/08 00:17:07;;;;;;;2.47;0.43;;;;;;;7.46;100.00;97058.66;5025124;28;20392;-50
2022/04/08 00:19:51;;;;;;;1.73;0.63;;;;;;;7.44;100.00;97052.72;5025476;28;20071;-50
2022/04/08 00:22:42;;;;;;;4.32;0.63;;;;;;;7.48;100.00;97067.25;5025971;28;20053;-50
2022/04/08 00:25:26;;;;;;;1.90;0.57;;;;;;;7.48;100.00;97071.63;5025837;28;20053;-51
2022/04/08 00:28:10;;;;;;;2.00;0.63;;;;;;;7.42;100.00;97067.56;5026116;28;20049;-51
2022/04/08 00:30:55;;;;;;;5.22;0.95;;;;;;;7.43;100.00;97065.81;5010146;28;20045;-50
2022/04/08 00:33:40;;;;;;;3.40;0.77;;;;;;;7.45;100.00;97066.56;5023981;28;20050;-50
2022/04/08 00:36:24;;;;;;;1.92;0.50;;;;;;;7.49;100.00;97068.06;5024280;28;20096;-50
2022/04/08 00:39:11;;;;;;;2.17;0.47;;;;;;;7.64;100.00;97075.03;5026223;28;20496;-50
2022/04/08 00:41:59;;;;;;;2.45;0.70;;;;;;;7.66;100.00;97065.34;5024565;28;20095;-50
2022/04/08 00:44:43;;;;;;;2.58;0.70;;;;;;;7.74;100.00;97059.72;5025087;28;20509;-50
2022/04/08 00:47:28;;;;;;;5.10;0.70;;;;;;;7.70;100.00;97082.50;5025781;28;20897;-50
2022/04/08 00:50:12;;;;;;;2.78;1.17;;;;;;;7.70;100.00;97079.03;5025539;28;20059;-50
2022/04/08 00:52:58;;;;;;;1.95;0.50;;;;;;;7.84;100.00;97088.69;5025598;28;20053;-50
2022/04/08 00:55:43;;;;;;;4.93;1.00;;;;;;;7.86;100.00;97069.41;5025448;28;20045;-50
2022/04/08 00:58:28;;;;;;;2.97;0.77;;;;;;;8.04;100.00;97077.13;5025496;28;20049;-50
2022/04/08 01:01:12;;;;;;;2.28;0.38;;;;;;;8.05;100.00;97089.22;5025966;28;20124;-50
2022/04/08 01:03:57;;;;;;;2.22;0.90;;;;;;;8.06;100.00;97101.31;5024987;28;20050;-50
2022/04/08 01:06:44;;;;;;;1.67;0.38;;;;;;;8.07;100.00;97090.81;5024330;28;20498;-50
2022/04/08 01:09:28;;;;;;;7.38;0.45;;;;;;;8.13;100.00;97097.44;5025155;28;20377;-50
2022/04/08 01:12:12;;;;;;;2.15;0.98;;;;;;;8.09;100.00;97106.34;5023148;28;20045;-50
2022/04/08 01:14:59;;;;;;;3.28;0.40;;;;;;;8.13;100.00;97113.09;5025382;28;20150;-51
2022/04/08 01:17:43;;;;;;;7.63;0.80;;;;;;;8.06;100.00;97112.63;5026290;28;20056;-50
2022/04/08 01:20:28;;;;;;;4.97;0.98;;;;;;;8.08;100.00;97109.91;5025088;28;20038;-50
2022/04/08 01:23:16;;;;;;;2.17;0.32;;;;;;;7.93;100.00;97106.44;5024140;28;20538;-50
2022/04/08 01:26:08;;;;;;;3.83;0.63;;;;;;;7.96;100.00;97124.47;5028305;28;20076;-50
2022/04/08 01:28:54;;;;;;;4.13;0.63;;;;;;;8.00;100.00;97112.97;5028546;28;20480;-49
2022/04/08 01:31:43;;;;;;;7.32;0.82;;;;;;;8.00;100.00;97123.38;5028004;28;20484;-50
2022/04/08 01:34:27;;;;;;;4.07;1.20;;;;;;;7.87;100.00;97115.41;5028158;28;20049;-50
2022/04/08 01:37:12;;;;;;;5.88;0.80;;;;;;;7.77;100.00;97126.44;5028157;28;20057;-50
2022/04/08 01:39:56;;;;;;;2.63;0.50;;;;;;;7.79;100.00;97127.19;5028269;28;20041;-50
2022/04/08 01:42:41;;;;;;;3.67;1.13;;;;;;;7.79;100.00;97128.03;5027969;28;20603;-50
2022/04/08 01:45:25;;;;;;;4.10;0.80;;;;;;;7.77;100.00;97137.72;5027898;28;20045;-51
2022/04/08 01:48:10;;;;;;;2.88;0.60;;;;;;;7.79;100.00;97142.81;5028276;28;20061;-51
2022/04/08 01:50:54;;;;;;;3.25;0.95;;;;;;;7.80;100.00;97137.53;5028415;28;20132;-50
2022/04/08 01:53:39;;;;;;;3.20;0.43;;;;;;;7.76;100.00;97137.78;5028177;28;20488;-50
2022/04/08 01:56:23;;;;;;;1.85;0.47;;;;;;;7.73;100.00;97146.59;5028103;28;20042;-50
2022/04/08 01:59:07;;;;;;;5.45;0.60;;;;;;;7.69;100.00;97142.50;5027573;28;20042;-50
2022/04/08 02:01:52;;;;;;;3.00;0.32;;;;;;;7.56;100.00;97151.91;5028578;28;20041;-50
2022/04/08 02:04:37;;;;;;;2.95;0.63;;;;;;;7.58;100.00;97144.88;5027185;28;20068;-51
2022/04/08 02:07:22;;;;;;;6.25;0.60;;;;;;;7.50;100.00;97146.09;5028087;28;20140;-51
2022/04/08 02:10:07;;;;;;;3.75;0.40;;;;;;;7.46;100.00;97146.38;5028437;28;20045;-50
2022/04/08 02:12:52;;;;;;;3.08;0.50;;;;;;;7.41;100.00;97149.25;5026528;28;20396;-50
2022/04/08 02:15:38;;;;;;;3.45;0.60;;;;;;;7.16;100.00;97154.91;5027250;28;20044;-51
2022/04/08 02:18:22;;;;;;;2.42;0.40;;;;;;;7.30;100.00;97153.34;5027284;28;20395;-50
2022/04/08 02:21:09;;;;;;;4.90;0.88;;;;;;;7.36;100.00;97159.06;5027074;28;20049;-51
2022/04/08 02:23:54;;;;;;;2.60;0.60;;;;;;;7.42;100.00;97150.91;5027614;28;20037;-50
2022/04/08 02:26:39;;;;;;;2.20;0.85;;;;;;;7.40;100.00;97157.13;5027858;28;20060;-50
2022/04/08 02:29:24;;;;;;;4.47;0.52;;;;;;;7.35;100.00;97161.75;5028032;28;20042;-50
2022/04/08 02:32:10;;;;;;;4.45;0.50;;;;;;;7.29;100.00;97160.31;5028017;28;20377;-50
2022/04/08 02:34:54;;;;;;;3.45;0.73;;;;;;;7.16;100.00;97154.09;5027995;28;20045;-50
2022/04/08 02:37:39;;;;;;;3.45;0.40;;;;;;;7.12;100.00;97166.41;5026671;28;20050;-50
2022/04/08 02:40:23;;;;;;;2.95;0.65;;;;;;;7.07;100.00;97163.22;5027109;28;20132;-50
2022/04/08 02:43:08;;;;;;;1.40;0.52;;;;;;;6.96;100.00;97162.94;5027596;28;20037;-50
2022/04/08 02:45:52;;;;;;;2.63;0.60;;;;;;;6.90;100.00;97181.47;5026956;28;20053;-51
2022/04/08 02:48:37;;;;;;;2.20;0.60;;;;;;;6.83;100.00;97178.34;5027717;28;20108;-51
2022/04/08 02:51:21;;;;;;;3.08;0.65;;;;;;;6.87;100.00;97172.06;5026899;28;20468;-50
2022/04/08 02:54:06;;;;;;;3.75;0.60;;;;;;;6.72;100.00;97184.09;5028013;28;20480;-50
2022/04/08 02:56:50;;;;;;;4.53;0.75;;;;;;;6.61;100.00;97186.41;5026501;28;20132;-50
2022/04/08 02:59:35;;;;;;;4.75;0.90;;;;;;;6.66;100.00;97199.16;5025866;28;20053;-50
2022/04/08 03:02:19;;;;;;;4.40;0.47;;;;;;;6.63;100.00;97194.97;5025132;28;20140;-50
2022/04/08 03:05:06;;;;;;;4.63;0.90;;;;;;;6.63;100.00;97194.13;5026526;28;20061;-50
2022/04/08 03:07:50;;;;;;;3.55;0.60;;;;;;;6.55;100.00;97195.34;5027500;28;20045;-50
2022/04/08 03:10:35;;;;;;;2.42;0.38;;;;;;;6.52;100.00;97199.88;5027409;28;20045;-50
2022/04/08 03:13:20;;;;;;;2.92;0.60;;;;;;;6.52;100.00;97203.31;5025256;28;20053;-50
2022/04/08 03:16:05;;;;;;;3.95;0.73;;;;;;;6.47;100.00;97189.69;5023468;28;20178;-50
2022/04/08 03:18:49;;;;;;;7.57;2.65;;;;;;;6.56;100.00;97211.78;5023923;28;20049;-50
2022/04/08 03:21:34;;;;;;;5.15;1.27;;;;;;;6.54;100.00;97211.03;5023549;28;20556;-51
2022/04/08 03:24:18;;;;;;;4.10;0.82;;;;;;;6.62;100.00;97206.28;5023507;28;20069;-50
2022/04/08 03:27:03;;;;;;;5.88;1.80;;;;;;;6.68;100.00;97205.97;5024284;28;20045;-50
2022/04/08 03:29:48;;;;;;;7.15;1.67;;;;;;;6.73;100.00;97217.00;5025000;28;21127;-50
2022/04/08 03:32:33;;;;;;;10.77;2.83;;;;;;;6.79;100.00;97218.44;5024085;28;20050;-50
2022/04/08 03:35:17;;;;;;;8.82;2.80;;;;;;;6.76;100.00;97221.22;5022834;28;20069;-50
2022/04/08 03:38:02;;;;;;;9.23;3.15;;;;;;;6.86;100.00;97214.63;5022007;28;20049;-50
2022/04/08 03:40:48;;;;;;;13.10;4.28;;;;;;;6.82;100.00;97220.03;5025751;28;20037;-50
2022/04/08 03:43:34;;;;;;;14.02;5.93;;;;;;;6.89;100.00;97230.09;5025879;28;20041;-51
2022/04/08 03:46:19;;;;;;;10.45;3.75;;;;;;;6.96;100.00;97228.84;5025693;28;20034;-50
2022/04/08 03:49:11;;;;;;;7.47;3.33;;;;;;;6.98;100.00;97240.00;5025277;28;20049;-50
2022/04/08 03:51:55;;;;;;;6.07;1.20;;;;;;;7.07;100.00;97250.88;5024382;28;20818;-50
2022/04/08 03:54:40;;;;;;;4.75;1.05;;;;;;;7.11;100.00;97255.81;5024272;28;20045;-50
2022/04/08 03:57:24;;;;;;;4.38;0.70;;;;;;;7.01;100.00;97250.25;5025202;28;20053;-51
2022/04/08 04:00:09;;;;;;;3.25;0.60;;;;;;;7.00;100.00;97252.94;5025780;28;20054;-50
2022/04/08 04:02:53;;;;;;;3.58;0.73;;;;;;;6.94;100.00;97256.69;5025186;28;20117;-50
2022/04/08 04:05:38;;;;;;;3.38;0.70;;;;;;;7.03;100.00;97258.84;5025308;28;20053;-51
2022/04/08 04:08:22;;;;;;;3.85;1.10;;;;;;;6.99;100.00;97259.91;5023870;28;20053;-50
2022/04/08 04:11:07;;;;;;;5.13;1.23;;;;;;;6.93;100.00;97270.63;5025183;28;20053;-50
2022/04/08 04:13:52;;;;;;;2.38;0.85;;;;;;;6.93;100.00;97262.81;5025343;28;20049;-50
2022/04/08 04:16:36;;;;;;;4.97;1.02;;;;;;;7.03;100.00;97266.63;5026094;28;20049;-50
2022/04/08 04:19:20;;;;;;;4.55;0.93;;;;;;;6.88;100.00;97259.59;5026576;28;20694;-50
2022/04/08 04:22:05;;;;;;;4.75;1.25;;;;;;;6.95;100.00;97260.13;5027189;28;20041;-50
2022/04/08 04:24:49;;;;;;;4.43;1.50;;;;;;;6.81;100.00;97273.00;5026001;28;20463;-50
2022/04/08 04:27:34;;;;;;;3.92;1.30;;;;;;;6.80;100.00;97264.38;5025611;28;20616;-50
2022/04/08 04:30:18;;;;;;;3.28;1.40;;;;;;;6.91;100.00;97266.41;5026961;28;20045;-50
2022/04/08 04:33:02;;;;;;;6.20;2.03;;;;;;;6.78;100.00;97268.78;5026580;28;20054;-50
2022/04/08 04:35:47;;;;;;;3.88;0.90;;;;;;;6.75;100.00;97277.59;5026728;28;20049;-50
2022/04/08 04:38:31;;;;;;;3.83;1.25;;;;;;;6.71;100.00;97283.03;5027294;28;20061;-50
2022/04/08 04:41:17;;;;;;;4.88;1.40;;;;;;;6.84;100.00;97291.91;5028137;28;20038;-51
2022/04/08 04:44:02;;;;;;;6.03;1.80;;;;;;;6.77;100.00;97291.38;5027951;28;20053;-51
2022/04/08 04:46:47;;;;;;;8.43;2.40;;;;;;;7.02;100.00;97308.38;5027290;28;20045;-50
2022/04/08 04:49:31;;;;;;;9.13;2.25;;;;;;;7.12;100.00;97314.81;5027899;28;20056;-50
2022/04/08 04:52:16;;;;;;;5.63;1.40;;;;;;;7.21;100.00;97316.06;5028162;28;20037;-50
2022/04/08 04:55:00;;;;;;;10.75;2.10;;;;;;;7.32;100.00;97320.75;5028563;28;20400;-50
2022/04/08 04:57:44;;;;;;;7.60;2.00;;;;;;;7.52;100.00;97319.72;5027674;28;20045;-50
2022/04/08 05:00:29;;;;;;;5.15;0.93;;;;;;;7.56;100.00;97336.88;5030480;28;20056;-50
2022/04/08 05:03:13;;;;;;;6.80;1.42;;;;;;;7.70;100.00;97334.38;5030815;28;20045;-50
2022/04/08 05:05:58;;;;;;;4.55;1.42;;;;;;;7.62;100.00;97340.00;5033499;28;20057;-50
2022/04/08 05:08:42;;;;;;;5.75;1.92;;;;;;;7.70;100.00;97342.19;5031693;28;20049;-50
2022/04/08 05:11:27;;;;;;;6.82;1.35;;;;;;;7.80;100.00;97348.63;5030223;28;20495;-50
2022/04/08 05:14:11;;;;;;;5.18;1.92;;;;;;;7.77;100.00;97340.09;5028879;28;20738;-50
2022/04/08 05:16:58;;;;;;;4.35;1.00;;;;;;;7.88;100.00;97356.03;5030918;28;20057;-50
2022/04/08 05:19:42;;;;;;;4.15;1.13;;;;;;;8.03;100.00;97363.03;5030094;28;20110;-50
2022/04/08 05:22:26;;;;;;;4.57;1.25;;;;;;;8.06;100.00;97356.78;5026780;28;20205;-51
2022/04/08 05:25:11;;;;;;;5.15;0.95;;;;;;;8.05;99.75;97350.75;5030807;28;20049;-50
2022/04/08 05:27:56;;;;;;;5.63;1.05;;;;;;;8.27;99.67;97378.28;5030177;28;20045;-50
2022/04/08 05:30:40;;;;;;;7.75;2.60;;;;;;;8.35;98.79;97379.56;5030575;28;20137;-51
2022/04/08 05:33:25;;;;;;;10.35;3.80;;;;;;;8.40;97.78;97387.16;5030512;28;20057;-50
2022/04/08 05:36:09;;;;;;;3.25;1.15;;;;;;;8.44;98.35;97388.66;5028424;28;20045;-50
2022/04/08 05:38:54;;;;;;;4.43;1.35;;;;;;;8.47;97.34;97393.72;5030175;28;20041;-51
2022/04/08 05:41:38;;;;;;;4.45;1.15;;;;;;;8.53;97.67;97397.75;5029266;28;20425;-50
2022/04/08 05:44:22;;;;;;;2.22;1.00;;;;;;;8.47;99.02;97408.53;5030100;28;20057;-50
2022/04/08 05:47:07;;;;;;;4.72;1.45;;;;;;;8.57;98.19;97412.31;5029854;28;20041;-50
2022/04/08 05:49:51;;;;;;;6.32;1.40;;;;;;;8.56;99.36;97419.31;5030747;28;20045;-51
2022/04/08 05:52:35;;;;;;;6.32;1.10;;;;;;;8.68;98.76;97436.06;5029589;28;20061;-51
2022/04/08 05:55:20;;;;;;;3.22;0.55;;;;;;;8.55;99.43;97435.06;5029876;28;20049;-51
2022/04/08 05:58:05;;;;;;;4.75;0.50;;;;;;;8.61;99.95;97440.78;5029649;28;20057;-50
2022/04/08 06:00:50;;;;;;;5.20;0.85;;;;;;;8.65;98.95;97446.69;5029018;28;20046;-50
2022/04/08 06:03:34;;;;;;;1.80;0.55;;;;;;;8.68;99.73;97453.47;5028408;28;20049;-51
2022/04/08 06:06:19;;;;;;;2.42;0.70;;;;;;;8.47;100.00;97450.28;5029421;28;20107;-51
2022/04/08 06:09:03;;;;;;;3.72;0.40;;;;;;;8.50;100.00;97460.53;5030346;28;20175;-51
2022/04/08 06:11:48;;;;;;;2.38;0.90;;;;;;;8.53;100.00;97457.78;5026522;28;20049;-50
2022/04/08 06:14:33;;;;;;;5.40;1.30;;;;;;;8.65;100.00;97467.56;5026841;28;20049;-49
2022/04/08 06:17:17;;;;;;;5.68;1.13;;;;;;;8.40;100.00;97450.59;5028666;28;20041;-50
2022/04/08 06:20:04;;;;;;;1.48;0.70;;;;;;;8.68;100.00;97471.75;5028619;28;20132;-51
2022/04/08 06:22:49;;;;;;;2.30;1.33;;;;;;;8.78;100.00;97486.00;5028791;28;20083;-50
2022/04/08 06:25:33;;;;;;;2.33;0.82;;;;;;;8.75;100.00;97487.00;5027987;28;20041;-50
2022/04/08 06:28:18;;;;;;;2.70;0.90;;;;;;;8.89;100.00;97487.06;5028024;28;20140;-51
2022/04/08 06:31:02;;;;;;;2.30;0.95;;;;;;;8.78;100.00;97499.88;5028016;28;20404;-50
2022/04/08 06:33:46;;;;;;;2.47;0.90;;;;;;;8.72;100.00;97495.00;5029650;28;20045;-51
2022/04/08 06:36:30;;;;;;;5.15;2.53;;;;;;;8.77;100.00;97508.63;5029177;28;20053;-51
2022/04/08 06:39:15;;;;;;;2.60;0.98;;;;;;;8.75;100.00;97505.28;5028723;28;20049;-49
2022/04/08 06:41:59;;;;;;;3.30;1.35;;;;;;;8.76;100.00;97503.50;5029594;28;20429;-50
2022/04/08 06:44:44;;;;;;;2.63;1.00;;;;;;;8.91;100.00;97504.44;5011714;28;20392;-50
2022/04/08 06:47:28;;;;;;;4.22;1.88;;;;;;;9.06;100.00;97516.63;5025191;28;20420;-51
2022/04/08 06:50:13;;;;;;;5.53;1.10;;;;;;;9.17;100.00;97524.75;5026504;28;20053;-51
2022/04/08 06:53:00;;;;;;;4.00;0.98;;;;;;;9.32;99.14;97526.47;5025878;28;20060;-51
2022/04/08 06:55:45;;;;;;;3.08;1.00;;;;;;;9.35;98.78;97522.84;5026006;28;20446;-50
2022/04/08 06:58:30;;;;;;;7.00;1.33;;;;;;;9.32;98.96;97529.09;5024579;28;20045;-50
2022/04/08 07:01:15;;;;;;;4.88;1.10;;;;;;;9.34;100.00;97531.63;5026130;28;20045;-51
2022/04/08 07:04:00;;;;;;;3.17;0.90;;;;;;;9.48;99.60;97528.22;5021229;28;20439;-50
2022/04/08 07:06:44;;;;;;;2.78;0.75;;;;;;;9.67;99.35;97523.66;5026821;28;20046;-50
2022/04/08 07:09:30;;;;;;;3.78;1.33;;;;;;;9.99;97.60;97540.09;5024067;28;20100;-51
2022/04/08 07:12:15;;;;;;;6.20;1.88;;;;;;;9.92;99.18;97541.38;5021608;28;20050;-50
2022/04/08 07:15:00;;;;;;;6.43;2.05;;;;;;;9.83;99.19;97536.69;5024180;28;20053;-51
2022/04/08 07:17:45;;;;;;;3.78;1.25;;;;;;;9.91;97.90;97542.31;5021282;28;20112;-50
2022/04/08 07:20:29;;;;;;;3.25;0.90;;;;;;;9.79;96.40;97558.72;5023677;28;20041;-50
2022/04/08 07:23:14;;;;;;;3.17;0.95;;;;;;;9.64;98.29;97563.03;5023054;28;20460;-51
2022/04/08 07:25:59;;;;;;;3.70;1.10;;;;;;;9.56;97.88;97568.69;5025518;28;20049;-50
2022/04/08 07:28:44;;;;;;;2.63;0.85;;;;;;;9.51;97.12;97577.72;5022441;28;20053;-51
2022/04/08 07:31:29;;;;;;;2.90;0.82;;;;;;;9.46;96.01;97566.69;5024138;28;20049;-50
2022/04/08 07:34:13;;;;;;;2.58;0.90;;;;;;;9.62;95.41;97587.56;5024903;28;20057;-50
2022/04/08 07:36:57;;;;;;;3.45;0.75;;;;;;;9.79;94.27;97593.53;5025143;28;20707;-50
2022/04/08 07:39:43;;;;;;;1.98;0.77;;;;;;;9.79;94.73;97580.47;5024636;28;20103;-51
2022/04/08 07:42:27;;;;;;;1.88;0.85;;;;;;;9.71;95.79;97606.19;5024184;28;20056;-50
2022/04/08 07:45:12;;;;;;;3.22;0.85;;;;;;;9.66;93.93;97612.63;5024116;28;20052;-50
2022/04/08 07:47:58;;;;;;;2.60;1.05;;;;;;;9.55;96.99;97608.84;5024604;28;20511;-51
2022/04/08 07:50:43;;;;;;;2.72;0.80;;;;;;;9.70;95.69;97624.56;5026337;28;20042;-50
2022/04/08 07:53:27;;;;;;;3.88;0.77;;;;;;;9.80;95.92;97638.81;5024399;28;20053;-51
2022/04/08 07:56:12;;;;;;;2.15;0.80;;;;;;;9.94;94.18;97645.88;5025156;28;20044;-51
2022/04/08 07:58:57;;;;;;;8.65;0.82;;;;;;;9.76;95.94;97645.97;5021695;28;20251;-50
2022/04/08 08:01:41;;;;;;;4.22;1.35;;;;;;;10.07;96.85;97649.47;5023176;28;20057;-51
2022/04/08 08:04:26;;;;;;;1.80;0.98;;;;;;;10.21;93.54;97652.16;5022497;28;20038;-50
2022/04/08 08:07:11;;;;;;;6.72;1.58;;;;;;;10.18;93.98;97646.25;5021016;28;20053;-50
2022/04/08 08:09:55;;;;;;;9.35;1.02;;;;;;;10.25;93.15;97650.22;5022115;28;20057;-51
2022/04/08 08:12:40;;;;;;;3.38;0.65;;;;;;;10.20;90.50;97670.53;5022933;28;20049;-51
2022/04/08 08:15:24;;;;;;;2.13;0.85;;;;;;;10.25;88.37;97653.66;5022549;28;20140;-51
2022/04/08 08:18:09;;;;;;;3.92;0.82;;;;;;;10.26;88.58;97680.69;5022818;28;20049;-52
2022/04/08 08:20:53;;;;;;;1.75;0.50;;;;;;;10.57;86.89;97673.69;5022304;28;20049;-51
2022/04/08 08:23:38;;;;;;;3.03;0.55;;;;;;;10.66;85.36;97694.94;5022412;28;20106;-51
2022/04/08 08:26:22;;;;;;;1.02;0.30;;;;;;;10.34;84.24;97686.34;5022948;28;20216;-51
2022/04/08 08:29:07;;;;;;;3.83;0.40;;;;;;;10.52;82.41;97697.50;5023949;28;20061;-51
2022/04/08 08:31:51;;;;;;;2.00;0.82;;;;;;;10.47;80.69;97699.56;4984097;28;1140005;-51
2022/04/08 08:34:36;;;;;;;1.45;0.50;;;;;;;10.52;75.99;97700.13;5024728;28;20048;-51
2022/04/08 08:37:21;;;;;;;2.25;0.40;;;;;;;10.24;74.61;97713.94;5027222;28;20050;-50
2022/04/08 08:40:07;;;;;;;1.52;0.60;;;;;;;10.10;76.10;97719.09;5027962;28;20052;-50
2022/04/08 08:42:52;;;;;;;2.25;0.68;;;;;;;10.16;76.55;97727.44;5026328;28;20044;-51
2022/04/08 08:45:37;;;;;;;1.10;0.30;;;;;;;10.12;75.89;97706.78;5026432;28;20102;-51
2022/04/08 08:48:22;;;;;;;3.50;0.50;;;;;;;10.31;76.20;97720.53;5021348;28;20514;-51
2022/04/08 08:51:07;;;;;;;1.45;0.50;;;;;;;10.59;75.03;97721.56;5026917;28;20065;-51
2022/04/08 08:53:51;;;;;;;1.88;0.73;;;;;;;11.03;75.95;97726.81;5027407;28;20046;-51
2022/04/08 08:56:36;;;;;;;5.15;1.40;;;;;;;11.46;73.92;97717.16;5025388;28;20353;-51
2022/04/08 08:59:20;;;;;;;1.20;0.30;;;;;;;12.00;69.05;97723.50;5029947;28;20108;-50
2022/04/08 09:02:05;;;;;;;1.67;0.38;;;;;;;11.84;69.30;97736.72;5030940;28;20072;-50
2022/04/08 09:04:49;;;;;;;1.75;0.60;;;;;;;11.64;70.92;97725.69;5031904;28;20045;-51
2022/04/08 09:07:34;;;;;;;4.28;1.02;;;;;;;11.39;70.99;97730.75;5030832;28;20064;-51
2022/04/08 09:10:24;;;;;;;6.13;2.65;;;;;;;11.08;73.53;97755.31;5032394;28;20037;-51
2022/04/08 09:13:10;;;;;;;19.42;8.95;;;;;;;10.67;74.17;97756.00;5029995;28;20053;-51
2022/04/08 09:15:57;;;;;;;2.55;1.42;;;;;;;10.71;73.90;97744.41;5031775;28;20091;-51
2022/04/08 09:18:48;;;;;;;3.22;1.80;;;;;;;10.66;74.66;97762.13;5031105;28;20037;-51
2022/04/08 09:21:32;;;;;;;2.10;1.10;;;;;;;10.69;75.33;97791.63;5031740;28;20046;-51
2022/04/08 09:24:22;;;;;;;4.68;0.68;;;;;;;10.37;83.23;97805.69;5030246;28;20480;-51
2022/04/08 09:27:06;;;;;;;1.42;0.77;;;;;;;9.68;90.72;97806.78;5029010;28;20140;-50
2022/04/08 09:29:51;;;;;;;1.77;0.70;;;;;;;9.44;95.39;97835.06;5028196;28;20669;-50
2022/04/08 09:32:35;;;;;;;3.22;0.93;;;;;;;9.04;100.00;97803.13;5027861;28;20064;-50
2022/04/08 09:35:20;;;;;;;1.25;0.80;;;;;;;9.41;100.00;97809.09;5030339;28;20037;-50
2022/04/08 09:38:04;;;;;;;1.70;0.68;;;;;;;9.76;100.00;97800.22;5026878;28;20138;-50
2022/04/08 09:40:49;;;;;;;1.83;0.80;;;;;;;10.10;100.00;97808.84;5028999;28;20408;-50
2022/04/08 09:43:37;;;;;;;3.75;1.13;;;;;;;10.50;93.04;97806.69;5029489;28;20107;-51
2022/04/08 09:46:22;;;;;;;2.63;1.35;;;;;;;10.80;87.50;97798.03;5032456;28;20705;-51
2022/04/08 09:49:06;;;;;;;1.52;0.68;;;;;;;10.67;84.50;97784.78;5030106;28;20122;-51
2022/04/08 09:51:54;;;;;;;1.05;0.47;;;;;;;10.80;81.00;97801.47;5028076;28;20049;-50
2022/04/08 09:54:42;;;;;;;0.55;0.35;;;;;;;10.86;82.47;97821.25;5026276;28;20049;-51
2022/04/08 09:57:33;;;;;;;0.82;0.65;;;;;;;10.95;81.34;97829.41;5027811;28;20042;-51
2022/04/08 10:00:18;;;;;;;1.33;0.30;;;;;;;11.13;79.94;97805.69;5028742;28;20041;-51
2022/04/08 10:03:04;;;;;;;0.40;0.20;;;;;;;11.20;77.15;97817.50;5028285;28;20567;-51
2022/04/08 10:05:48;;;;;;;1.95;0.10;;;;;;;11.59;78.40;97818.66;5027764;28;20045;-51
2022/04/08 10:08:33;;;;;;;4.47;0.30;;;;;;;11.55;76.85;97798.81;5028415;28;20045;-52
2022/04/08 10:11:47;;;;;;;2.75;1.52;;;;;;;11.34;76.81;97801.81;5028328;28;20459;-51
2022/04/08 10:14:50;;;;;;;0.73;0.40;;;;;;;11.84;74.34;97823.28;5028933;28;20052;-51
2022/04/08 10:17:35;;;;;;;1.52;0.22;;;;;;;12.08;71.80;97820.94;5028657;28;20038;-52
2022/04/08 10:20:21;;;;;;;0.65;0.40;;;;;;;11.72;72.72;97824.84;5028507;28;20480;-51
2022/04/08 10:23:13;;;;;;;0.60;0.20;;;;;;;11.82;74.05;97841.72;5030075;28;20646;-51
2022/04/08 10:25:58;;;;;;;0.80;0.13;;;;;;;11.58;72.18;97833.56;5027630;28;20057;-50
2022/04/08 10:28:42;;;;;;;1.00;0.43;;;;;;;11.48;71.78;97832.44;5030827;28;20500;-51
2022/04/08 10:31:27;;;;;;;0.73;0.50;;;;;;;11.54;74.07;97826.81;5029209;28;20045;-51
2022/04/08 10:34:12;;;;;;;1.35;0.50;;;;;;;11.51;74.87;97837.50;5027536;28;20045;-52
2022/04/08 10:36:56;;;;;;;0.98;0.30;;;;;;;12.04;73.83;97822.91;5027433;28;20049;-51
2022/04/08 10:39:42;;;;;;;1.45;0.30;;;;;;;12.47;70.92;97832.47;5028526;28;20756;-52
2022/04/08 10:42:28;;;;;;;0.43;0.38;;;;;;;12.55;69.54;97836.31;5025802;28;20049;-51
2022/04/08 10:45:14;;;;;;;2.63;1.30;;;;;;;13.10;70.14;97822.19;5026293;28;20434;-51
2022/04/08 10:48:18;;;;;;;2.33;0.50;;;;;;;13.52;68.65;97825.53;5027676;28;20050;-51
2022/04/08 10:51:10;;;;;;;1.73;0.60;;;;;;;13.56;65.37;97816.47;5022554;28;20053;-51
2022/04/08 10:54:03;;;;;;;1.38;0.80;;;;;;;13.65;64.99;97828.16;5024147;28;20519;-51
2022/04/08 10:56:57;;;;;;;4.03;0.40;;;;;;;13.32;65.29;97823.38;5025415;28;20077;-51
2022/04/08 10:59:52;;;;;;;5.35;0.70;;;;;;;13.02;66.28;97834.97;5026905;28;20058;-51
2022/04/08 11:02:38;;;;;;;1.70;0.75;;;;;;;12.84;68.35;97834.41;5025866;28;20041;-51
2022/04/08 11:05:23;;;;;;;0.70;0.40;;;;;;;12.91;67.85;97836.66;5022066;28;20037;-51
2022/04/08 11:08:07;;;;;;;1.17;0.47;;;;;;;12.71;68.77;97836.16;5025539;28;20073;-51
2022/04/08 11:10:57;;;;;;;2.38;1.35;;;;;;;12.82;68.03;97843.34;5025662;28;20041;-51
2022/04/08 11:13:42;;;;;;;2.67;1.25;;;;;;;12.81;68.85;97842.50;5026268;28;20052;-51
2022/04/08 11:16:28;;;;;;;4.57;1.23;;;;;;;12.82;68.25;97838.91;5022270;28;20053;-51
2022/04/08 11:19:13;;;;;;;1.95;0.57;;;;;;;13.13;65.21;97850.06;5023357;28;20492;-51
2022/04/08 11:21:57;;;;;;;2.83;0.50;;;;;;;13.46;63.10;97836.47;5023798;28;20041;-51
2022/04/08 11:24:42;;;;;;;1.40;0.60;;;;;;;13.52;62.67;97843.94;5025973;28;20067;-51
2022/04/08 11:27:31;;;;;;;2.10;0.50;;;;;;;13.37;63.26;97854.66;5021485;28;20052;-51
2022/04/08 11:30:17;;;;;;;0.60;0.60;;;;;;;13.40;63.00;97855.28;5025456;28;20045;-51
2022/04/08 11:33:13;;;;;;;1.90;0.70;;;;;;;13.36;62.97;97831.91;5026684;28;20053;-51
2022/04/08 11:36:00;;;;;;;3.08;0.70;;;;;;;13.53;60.25;97842.16;5022692;28;20049;-51
2022/04/08 11:38:45;;;;;;;0.95;0.30;;;;;;;13.61;60.97;97844.25;5025903;28;20046;-51
2022/04/08 11:41:30;;;;;;;4.47;0.70;;;;;;;12.90;61.32;97834.94;5021381;28;20042;-51
2022/04/08 11:44:15;;;;;;;0.65;0.32;;;;;;;13.01;63.29;97850.84;5023924;28;20090;-51
2022/04/08 11:47:08;;;;;;;1.80;0.35;;;;;;;13.24;61.14;97846.72;5024366;28;20053;-51
2022/04/08 11:50:05;;;;;;;2.30;1.00;;;;;;;13.61;62.62;97844.25;5024658;28;20431;-51
2022/04/08 11:52:57;;;;;;;1.02;0.60;;;;;;;13.75;61.73;97831.84;5020234;28;20041;-51
2022/04/08 11:55:53;;;;;;;2.55;1.10;;;;;;;13.81;61.94;97827.91;5023400;28;20060;-51
2022/04/08 11:58:38;;;;;;;0.73;0.50;;;;;;;14.04;62.96;97826.34;5024536;28;20049;-52
2022/04/08 12:01:23;;;;;;;1.02;0.50;;;;;;;14.24;59.07;97817.03;5021234;28;20049;-51
2022/04/08 12:04:11;;;;;;;2.55;0.50;;;;;;;14.41;56.26;97810.53;5020906;28;20046;-51
2022/04/08 12:06:56;;;;;;;3.47;0.60;;;;;;;14.52;56.93;97812.44;5024154;28;20483;-50
2022/04/08 12:09:40;;;;;;;2.05;0.50;;;;;;;14.42;56.61;97813.06;5025277;28;20411;-51
2022/04/08 12:12:27;;;;;;;2.80;1.08;;;;;;;14.25;56.75;97818.69;5026293;28;20049;-51
2022/04/08 12:15:11;;;;;;;1.48;0.43;;;;;;;14.34;52.59;97823.31;5022723;28;20064;-52
2022/04/08 12:18:05;;;;;;;3.22;0.50;;;;;;;14.25;50.20;97821.34;5024920;28;20045;-51
2022/04/08 12:20:53;;;;;;;1.52;0.90;;;;;;;13.78;49.71;97813.22;5025786;28;20037;-51
2022/04/08 12:23:40;;;;;;;8.05;3.40;;;;;;;14.03;50.75;97817.56;5026921;28;20056;-51
2022/04/08 12:26:36;;;;;;;2.55;0.35;;;;;;;13.95;51.75;97812.03;5026891;28;20391;-51
2022/04/08 12:29:26;;;;;;;1.23;0.30;;;;;;;13.81;50.65;97825.28;5021982;28;20057;-51
2022/04/08 12:32:14;;;;;;;1.52;0.63;;;;;;;13.79;51.07;97822.78;5021088;28;20061;-51
2022/04/08 12:34:59;;;;;;;5.45;2.60;;;;;;;13.82;50.14;97798.06;5023896;28;20057;-51
2022/04/08 12:37:44;;;;;;;7.18;2.95;;;;;;;13.84;51.70;97805.81;5027515;28;20073;-51
2022/04/08 12:40:28;;;;;;;3.05;1.30;;;;;;;13.87;49.90;97802.97;5024532;28;20376;-51
2022/04/08 12:43:13;;;;;;;4.72;1.70;;;;;;;13.51;48.63;97812.47;5026546;28;20053;-51
2022/04/08 12:45:57;;;;;;;10.18;3.80;;;;;;;13.56;48.71;97795.44;5029201;28;20064;-51
2022/04/08 12:48:42;;;;;;;3.85;1.80;;;;;;;13.43;50.96;97801.66;5027206;28;20056;-50
2022/04/08 12:51:30;;;;;;;4.10;0.40;;;;;;;13.73;49.79;97790.78;5020538;28;20041;-50
2022/04/08 12:54:15;;;;;;;1.95;0.60;;;;;;;13.75;49.63;97779.22;5026029;28;20045;-50
2022/04/08 12:56:59;;;;;;;1.08;0.50;;;;;;;13.74;49.98;97795.09;5026439;28;20061;-50
2022/04/08 12:59:43;;;;;;;2.40;0.60;;;;;;;13.85;50.93;97784.69;5027722;28;20084;-50